sensor_id;sensor_type;location;lat;lon;timestamp;P1;durP1;ratioP1;P2;durP2;ratioP2
55655;SDS011;41530;52.382;5.270;2023-03-01T00:01:21;2.00;;;1.42;;
55655;SDS011;41530;52.382;5.270;2023-03-01T00:03:50;2.38;;;1.60;;
55655;SDS011;41530;52.382;5.270;2023-03-01T00:06:17;2.78;;;1.60;;
55655;SDS011;41530;52.382;5.270;2023-03-01T00:08:44;2.35;;;1.60;;
55655;SDS011;41530;52.382;5.270;2023-03-01T00:11:12;3.28;;;2.13;;
55655;SDS011;41530;52.382;5.270;2023-03-01T00:13:41;2.17;;;1.33;;
55655;SDS011;41530;52.382;5.270;2023-03-01T00:16:12;2.67;;;1.70;;
55655;SDS011;41530;52.382;5.270;2023-03-01T00:18:41;3.08;;;1.85;;
55655;SDS011;41530;52.382;5.270;2023-03-01T00:21:08;2.83;;;1.90;;
55655;SDS011;41530;52.382;5.270;2023-03-01T00:23:35;2.30;;;1.80;;
55655;SDS011;41530;52.382;5.270;2023-03-01T00:26:05;3.83;;;1.60;;
55655;SDS011;41530;52.382;5.270;2023-03-01T00:28:32;2.35;;;1.27;;
55655;SDS011;41530;52.382;5.270;2023-03-01T00:31:03;2.75;;;1.65;;
55655;SDS011;41530;52.382;5.270;2023-03-01T00:33:31;2.67;;;1.80;;
55655;SDS011;41530;52.382;5.270;2023-03-01T00:35:58;3.20;;;1.70;;
55655;SDS011;41530;52.382;5.270;2023-03-01T00:38:25;3.13;;;2.03;;
55655;SDS011;41530;52.382;5.270;2023-03-01T00:40:52;3.55;;;1.80;;
55655;SDS011;41530;52.382;5.270;2023-03-01T00:43:19;3.83;;;2.10;;
55655;SDS011;41530;52.382;5.270;2023-03-01T00:45:45;3.83;;;1.88;;
55655;SDS011;41530;52.382;5.270;2023-03-01T00:48:12;2.88;;;1.75;;
55655;SDS011;41530;52.382;5.270;2023-03-01T00:50:38;3.00;;;1.90;;
55655;SDS011;41530;52.382;5.270;2023-03-01T00:53:05;2.90;;;1.98;;
55655;SDS011;41530;52.382;5.270;2023-03-01T00:55:32;2.40;;;1.77;;
55655;SDS011;41530;52.382;5.270;2023-03-01T00:57:58;2.25;;;1.77;;
55655;SDS011;41530;52.382;5.270;2023-03-01T01:00:25;3.70;;;2.17;;
55655;SDS011;41530;52.382;5.270;2023-03-01T01:02:53;2.53;;;1.95;;
55655;SDS011;41530;52.382;5.270;2023-03-01T01:05:20;3.78;;;2.08;;
55655;SDS011;41530;52.382;5.270;2023-03-01T01:07:47;3.20;;;2.03;;
55655;SDS011;41530;52.382;5.270;2023-03-01T01:10:14;1.92;;;1.73;;
55655;SDS011;41530;52.382;5.270;2023-03-01T01:12:44;2.58;;;1.70;;
55655;SDS011;41530;52.382;5.270;2023-03-01T01:15:12;2.70;;;1.85;;
55655;SDS011;41530;52.382;5.270;2023-03-01T01:17:40;2.53;;;1.80;;
55655;SDS011;41530;52.382;5.270;2023-03-01T01:20:07;2.75;;;2.30;;
55655;SDS011;41530;52.382;5.270;2023-03-01T01:22:34;2.70;;;1.92;;
55655;SDS011;41530;52.382;5.270;2023-03-01T01:25:01;2.10;;;1.55;;
55655;SDS011;41530;52.382;5.270;2023-03-01T01:27:27;4.75;;;2.10;;
55655;SDS011;41530;52.382;5.270;2023-03-01T01:29:55;3.20;;;1.90;;
55655;SDS011;41530;52.382;5.270;2023-03-01T01:32:22;2.83;;;2.20;;
55655;SDS011;41530;52.382;5.270;2023-03-01T01:34:52;2.30;;;1.98;;
55655;SDS011;41530;52.382;5.270;2023-03-01T01:37:18;2.85;;;2.20;;
55655;SDS011;41530;52.382;5.270;2023-03-01T01:39:45;3.08;;;2.15;;
55655;SDS011;41530;52.382;5.270;2023-03-01T01:42:15;4.10;;;2.35;;
55655;SDS011;41530;52.382;5.270;2023-03-01T01:44:46;2.85;;;2.08;;
55655;SDS011;41530;52.382;5.270;2023-03-01T01:47:16;2.67;;;2.20;;
55655;SDS011;41530;52.382;5.270;2023-03-01T01:49:51;2.80;;;2.20;;
55655;SDS011;41530;52.382;5.270;2023-03-01T01:52:39;3.25;;;2.20;;
55655;SDS011;41530;52.382;5.270;2023-03-01T01:55:07;4.90;;;1.98;;
55655;SDS011;41530;52.382;5.270;2023-03-01T01:57:41;2.45;;;1.83;;
55655;SDS011;41530;52.382;5.270;2023-03-01T02:02:43;3.92;;;1.90;;
55655;SDS011;41530;52.382;5.270;2023-03-01T02:07:39;3.20;;;2.22;;
55655;SDS011;41530;52.382;5.270;2023-03-01T02:10:07;3.80;;;2.13;;
55655;SDS011;41530;52.382;5.270;2023-03-01T02:12:34;3.78;;;2.60;;
55655;SDS011;41530;52.382;5.270;2023-03-01T02:15:04;3.88;;;2.03;;
55655;SDS011;41530;52.382;5.270;2023-03-01T02:17:31;4.32;;;2.45;;
55655;SDS011;41530;52.382;5.270;2023-03-01T02:23:00;4.25;;;2.00;;
55655;SDS011;41530;52.382;5.270;2023-03-01T02:25:30;2.55;;;2.00;;
55655;SDS011;41530;52.382;5.270;2023-03-01T02:30:31;3.10;;;2.00;;
55655;SDS011;41530;52.382;5.270;2023-03-01T02:39:45;2.95;;;1.83;;
55655;SDS011;41530;52.382;5.270;2023-03-01T02:57:49;4.13;;;2.63;;
55655;SDS011;41530;52.382;5.270;2023-03-01T03:00:18;3.63;;;2.75;;
55655;SDS011;41530;52.382;5.270;2023-03-01T03:02:52;3.63;;;2.55;;
55655;SDS011;41530;52.382;5.270;2023-03-01T03:05:22;3.40;;;2.35;;
55655;SDS011;41530;52.382;5.270;2023-03-01T03:07:50;4.85;;;2.50;;
55655;SDS011;41530;52.382;5.270;2023-03-01T03:10:25;2.80;;;2.08;;
55655;SDS011;41530;52.382;5.270;2023-03-01T03:12:57;3.60;;;2.30;;
55655;SDS011;41530;52.382;5.270;2023-03-01T03:15:25;3.75;;;2.03;;
55655;SDS011;41530;52.382;5.270;2023-03-01T03:17:53;4.45;;;2.50;;
55655;SDS011;41530;52.382;5.270;2023-03-01T03:20:23;2.70;;;2.03;;
55655;SDS011;41530;52.382;5.270;2023-03-01T03:22:52;3.20;;;2.42;;
55655;SDS011;41530;52.382;5.270;2023-03-01T03:25:21;5.10;;;2.58;;
55655;SDS011;41530;52.382;5.270;2023-03-01T03:27:49;2.67;;;2.22;;
55655;SDS011;41530;52.382;5.270;2023-03-01T03:30:24;2.17;;;1.92;;
55655;SDS011;41530;52.382;5.270;2023-03-01T03:32:56;3.60;;;2.47;;
55655;SDS011;41530;52.382;5.270;2023-03-01T03:35:25;2.97;;;2.28;;
55655;SDS011;41530;52.382;5.270;2023-03-01T03:37:57;2.92;;;2.08;;
55655;SDS011;41530;52.382;5.270;2023-03-01T03:40:38;3.10;;;2.30;;
55655;SDS011;41530;52.382;5.270;2023-03-01T03:43:07;2.60;;;2.40;;
55655;SDS011;41530;52.382;5.270;2023-03-01T03:45:35;4.85;;;2.67;;
55655;SDS011;41530;52.382;5.270;2023-03-01T03:48:03;3.38;;;2.63;;
55655;SDS011;41530;52.382;5.270;2023-03-01T03:50:32;5.88;;;3.10;;
55655;SDS011;41530;52.382;5.270;2023-03-01T03:53:03;4.57;;;2.50;;
55655;SDS011;41530;52.382;5.270;2023-03-01T03:55:31;3.58;;;2.58;;
55655;SDS011;41530;52.382;5.270;2023-03-01T03:58:01;4.00;;;2.35;;
55655;SDS011;41530;52.382;5.270;2023-03-01T04:00:37;2.97;;;2.55;;
55655;SDS011;41530;52.382;5.270;2023-03-01T04:03:08;3.97;;;2.50;;
55655;SDS011;41530;52.382;5.270;2023-03-01T04:05:36;4.80;;;2.80;;
55655;SDS011;41530;52.382;5.270;2023-03-01T04:08:04;3.72;;;2.13;;
55655;SDS011;41530;52.382;5.270;2023-03-01T04:10:35;7.55;;;2.80;;
55655;SDS011;41530;52.382;5.270;2023-03-01T04:13:04;3.70;;;2.83;;
55655;SDS011;41530;52.382;5.270;2023-03-01T04:15:33;3.97;;;2.67;;
55655;SDS011;41530;52.382;5.270;2023-03-01T04:18:00;4.43;;;2.80;;
55655;SDS011;41530;52.382;5.270;2023-03-01T04:20:28;3.75;;;2.70;;
55655;SDS011;41530;52.382;5.270;2023-03-01T04:22:57;3.53;;;2.80;;
55655;SDS011;41530;52.382;5.270;2023-03-01T04:25:40;3.83;;;2.30;;
55655;SDS011;41530;52.382;5.270;2023-03-01T04:28:09;4.97;;;3.03;;
55655;SDS011;41530;52.382;5.270;2023-03-01T04:30:36;3.28;;;2.60;;
55655;SDS011;41530;52.382;5.270;2023-03-01T04:33:04;3.55;;;2.92;;
55655;SDS011;41530;52.382;5.270;2023-03-01T04:35:32;3.47;;;2.60;;
55655;SDS011;41530;52.382;5.270;2023-03-01T04:38:00;4.43;;;3.13;;
55655;SDS011;41530;52.382;5.270;2023-03-01T04:40:27;3.13;;;2.83;;
55655;SDS011;41530;52.382;5.270;2023-03-01T04:42:54;4.70;;;2.92;;
55655;SDS011;41530;52.382;5.270;2023-03-01T04:45:20;3.20;;;2.45;;
55655;SDS011;41530;52.382;5.270;2023-03-01T04:47:47;3.60;;;2.33;;
55655;SDS011;41530;52.382;5.270;2023-03-01T04:50:15;4.72;;;2.90;;
55655;SDS011;41530;52.382;5.270;2023-03-01T04:52:43;2.95;;;2.42;;
55655;SDS011;41530;52.382;5.270;2023-03-01T04:55:10;4.47;;;2.80;;
55655;SDS011;41530;52.382;5.270;2023-03-01T04:57:37;3.65;;;2.65;;
55655;SDS011;41530;52.382;5.270;2023-03-01T05:00:05;3.13;;;2.42;;
55655;SDS011;41530;52.382;5.270;2023-03-01T05:02:48;3.53;;;2.75;;
55655;SDS011;41530;52.382;5.270;2023-03-01T05:07:55;2.65;;;2.15;;
55655;SDS011;41530;52.382;5.270;2023-03-01T05:10:23;3.85;;;2.47;;
55655;SDS011;41530;52.382;5.270;2023-03-01T05:12:51;3.88;;;2.58;;
55655;SDS011;41530;52.382;5.270;2023-03-01T05:15:19;3.03;;;2.33;;
55655;SDS011;41530;52.382;5.270;2023-03-01T05:17:48;2.45;;;2.13;;
55655;SDS011;41530;52.382;5.270;2023-03-01T05:20:15;3.95;;;2.63;;
55655;SDS011;41530;52.382;5.270;2023-03-01T05:22:42;4.07;;;2.58;;
55655;SDS011;41530;52.382;5.270;2023-03-01T05:25:09;4.90;;;2.90;;
55655;SDS011;41530;52.382;5.270;2023-03-01T05:27:35;3.88;;;2.58;;
55655;SDS011;41530;52.382;5.270;2023-03-01T05:30:02;3.28;;;2.50;;
55655;SDS011;41530;52.382;5.270;2023-03-01T05:32:43;3.03;;;2.60;;
55655;SDS011;41530;52.382;5.270;2023-03-01T05:35:14;3.47;;;2.70;;
55655;SDS011;41530;52.382;5.270;2023-03-01T05:37:43;4.18;;;2.72;;
55655;SDS011;41530;52.382;5.270;2023-03-01T05:40:13;3.13;;;2.53;;
55655;SDS011;41530;52.382;5.270;2023-03-01T05:42:44;3.17;;;2.50;;
55655;SDS011;41530;52.382;5.270;2023-03-01T05:45:16;3.42;;;2.50;;
55655;SDS011;41530;52.382;5.270;2023-03-01T05:47:43;4.47;;;2.75;;
55655;SDS011;41530;52.382;5.270;2023-03-01T05:50:15;4.50;;;2.72;;
55655;SDS011;41530;52.382;5.270;2023-03-01T05:52:48;4.50;;;2.83;;
55655;SDS011;41530;52.382;5.270;2023-03-01T05:55:17;3.22;;;2.53;;
55655;SDS011;41530;52.382;5.270;2023-03-01T05:57:45;3.72;;;2.60;;
55655;SDS011;41530;52.382;5.270;2023-03-01T06:00:12;3.30;;;2.67;;
55655;SDS011;41530;52.382;5.270;2023-03-01T06:02:40;7.20;;;2.75;;
55655;SDS011;41530;52.382;5.270;2023-03-01T06:05:08;4.40;;;2.38;;
55655;SDS011;41530;52.382;5.270;2023-03-01T06:07:36;5.93;;;2.60;;
55655;SDS011;41530;52.382;5.270;2023-03-01T06:10:03;3.58;;;2.63;;
55655;SDS011;41530;52.382;5.270;2023-03-01T06:12:32;3.03;;;2.38;;
55655;SDS011;41530;52.382;5.270;2023-03-01T06:14:59;3.78;;;2.53;;
55655;SDS011;41530;52.382;5.270;2023-03-01T06:17:28;3.92;;;2.58;;
55655;SDS011;41530;52.382;5.270;2023-03-01T06:19:56;3.15;;;2.75;;
55655;SDS011;41530;52.382;5.270;2023-03-01T06:22:23;3.15;;;2.25;;
55655;SDS011;41530;52.382;5.270;2023-03-01T06:24:50;2.53;;;2.10;;
55655;SDS011;41530;52.382;5.270;2023-03-01T06:27:16;4.57;;;2.70;;
55655;SDS011;41530;52.382;5.270;2023-03-01T06:29:43;4.18;;;2.28;;
55655;SDS011;41530;52.382;5.270;2023-03-01T06:32:09;3.00;;;2.22;;
55655;SDS011;41530;52.382;5.270;2023-03-01T06:34:36;3.03;;;2.20;;
55655;SDS011;41530;52.382;5.270;2023-03-01T06:37:02;3.38;;;2.28;;
55655;SDS011;41530;52.382;5.270;2023-03-01T06:39:31;4.35;;;2.30;;
55655;SDS011;41530;52.382;5.270;2023-03-01T06:41:58;3.13;;;2.20;;
55655;SDS011;41530;52.382;5.270;2023-03-01T06:44:26;2.65;;;2.00;;
55655;SDS011;41530;52.382;5.270;2023-03-01T06:46:53;5.53;;;2.35;;
55655;SDS011;41530;52.382;5.270;2023-03-01T06:49:20;3.75;;;2.40;;
55655;SDS011;41530;52.382;5.270;2023-03-01T06:51:47;2.70;;;2.17;;
55655;SDS011;41530;52.382;5.270;2023-03-01T06:54:13;4.22;;;2.83;;
55655;SDS011;41530;52.382;5.270;2023-03-01T06:56:40;3.78;;;2.50;;
55655;SDS011;41530;52.382;5.270;2023-03-01T06:59:07;4.75;;;2.08;;
55655;SDS011;41530;52.382;5.270;2023-03-01T07:01:33;2.90;;;2.45;;
55655;SDS011;41530;52.382;5.270;2023-03-01T07:04:00;4.75;;;2.60;;
55655;SDS011;41530;52.382;5.270;2023-03-01T07:06:26;2.42;;;1.88;;
55655;SDS011;41530;52.382;5.270;2023-03-01T07:08:53;4.07;;;2.53;;
55655;SDS011;41530;52.382;5.270;2023-03-01T07:11:20;3.65;;;2.30;;
55655;SDS011;41530;52.382;5.270;2023-03-01T07:13:46;2.78;;;2.15;;
55655;SDS011;41530;52.382;5.270;2023-03-01T07:16:13;3.42;;;2.30;;
55655;SDS011;41530;52.382;5.270;2023-03-01T07:18:41;2.55;;;2.10;;
55655;SDS011;41530;52.382;5.270;2023-03-01T07:21:08;2.90;;;2.30;;
55655;SDS011;41530;52.382;5.270;2023-03-01T07:23:37;5.90;;;2.22;;
55655;SDS011;41530;52.382;5.270;2023-03-01T07:26:03;4.47;;;2.85;;
55655;SDS011;41530;52.382;5.270;2023-03-01T07:28:31;4.53;;;3.00;;
55655;SDS011;41530;52.382;5.270;2023-03-01T07:31:02;5.65;;;2.65;;
55655;SDS011;41530;52.382;5.270;2023-03-01T07:33:29;10.93;;;2.67;;
55655;SDS011;41530;52.382;5.270;2023-03-01T07:35:59;6.20;;;2.67;;
55655;SDS011;41530;52.382;5.270;2023-03-01T07:38:27;6.57;;;2.10;;
55655;SDS011;41530;52.382;5.270;2023-03-01T07:40:59;4.18;;;2.40;;
55655;SDS011;41530;52.382;5.270;2023-03-01T07:43:27;7.95;;;3.05;;
55655;SDS011;41530;52.382;5.270;2023-03-01T07:45:54;2.00;;;1.80;;
55655;SDS011;41530;52.382;5.270;2023-03-01T07:48:24;5.20;;;2.22;;
55655;SDS011;41530;52.382;5.270;2023-03-01T07:50:50;3.97;;;2.40;;
55655;SDS011;41530;52.382;5.270;2023-03-01T07:53:17;7.93;;;2.08;;
55655;SDS011;41530;52.382;5.270;2023-03-01T07:55:43;5.10;;;2.13;;
55655;SDS011;41530;52.382;5.270;2023-03-01T07:58:10;3.35;;;2.30;;
55655;SDS011;41530;52.382;5.270;2023-03-01T08:00:36;4.20;;;1.98;;
55655;SDS011;41530;52.382;5.270;2023-03-01T08:03:03;3.03;;;1.98;;
55655;SDS011;41530;52.382;5.270;2023-03-01T08:05:29;2.22;;;2.03;;
55655;SDS011;41530;52.382;5.270;2023-03-01T08:07:56;4.47;;;2.20;;
55655;SDS011;41530;52.382;5.270;2023-03-01T08:10:23;2.85;;;2.13;;
55655;SDS011;41530;52.382;5.270;2023-03-01T08:12:50;2.22;;;1.90;;
55655;SDS011;41530;52.382;5.270;2023-03-01T08:15:18;2.13;;;1.92;;
55655;SDS011;41530;52.382;5.270;2023-03-01T08:17:45;5.57;;;2.33;;
55655;SDS011;41530;52.382;5.270;2023-03-01T08:20:11;2.50;;;2.10;;
55655;SDS011;41530;52.382;5.270;2023-03-01T08:22:38;2.22;;;2.00;;
55655;SDS011;41530;52.382;5.270;2023-03-01T08:25:05;2.65;;;2.17;;
55655;SDS011;41530;52.382;5.270;2023-03-01T08:27:32;4.38;;;1.88;;
55655;SDS011;41530;52.382;5.270;2023-03-01T08:29:58;2.25;;;1.98;;
55655;SDS011;41530;52.382;5.270;2023-03-01T08:32:25;2.30;;;1.90;;
55655;SDS011;41530;52.382;5.270;2023-03-01T08:34:52;2.30;;;1.98;;
55655;SDS011;41530;52.382;5.270;2023-03-01T08:37:18;2.35;;;2.15;;
55655;SDS011;41530;52.382;5.270;2023-03-01T08:39:46;2.10;;;1.90;;
55655;SDS011;41530;52.382;5.270;2023-03-01T08:42:12;2.35;;;1.98;;
55655;SDS011;41530;52.382;5.270;2023-03-01T08:44:39;2.63;;;1.90;;
55655;SDS011;41530;52.382;5.270;2023-03-01T08:47:06;2.55;;;1.88;;
55655;SDS011;41530;52.382;5.270;2023-03-01T08:49:32;2.35;;;1.70;;
55655;SDS011;41530;52.382;5.270;2023-03-01T08:51:59;4.57;;;2.35;;
55655;SDS011;41530;52.382;5.270;2023-03-01T08:54:26;2.15;;;1.90;;
55655;SDS011;41530;52.382;5.270;2023-03-01T08:56:52;4.60;;;1.90;;
55655;SDS011;41530;52.382;5.270;2023-03-01T08:59:19;2.13;;;1.92;;
55655;SDS011;41530;52.382;5.270;2023-03-01T09:01:45;2.35;;;2.05;;
55655;SDS011;41530;52.382;5.270;2023-03-01T09:04:12;2.25;;;2.00;;
55655;SDS011;41530;52.382;5.270;2023-03-01T09:06:40;3.70;;;2.42;;
55655;SDS011;41530;52.382;5.270;2023-03-01T09:09:07;2.22;;;2.03;;
55655;SDS011;41530;52.382;5.270;2023-03-01T09:11:41;2.47;;;2.28;;
55655;SDS011;41530;52.382;5.270;2023-03-01T09:14:09;2.25;;;2.05;;
55655;SDS011;41530;52.382;5.270;2023-03-01T09:16:35;2.20;;;2.00;;
55655;SDS011;41530;52.382;5.270;2023-03-01T09:19:02;5.57;;;2.20;;
55655;SDS011;41530;52.382;5.270;2023-03-01T09:21:30;3.25;;;2.33;;
55655;SDS011;41530;52.382;5.270;2023-03-01T09:24:07;4.75;;;2.10;;
55655;SDS011;41530;52.382;5.270;2023-03-01T09:26:39;4.18;;;2.97;;
55655;SDS011;41530;52.382;5.270;2023-03-01T09:29:06;3.53;;;2.20;;
55655;SDS011;41530;52.382;5.270;2023-03-01T09:31:32;10.48;;;2.17;;
55655;SDS011;41530;52.382;5.270;2023-03-01T09:33:59;5.50;;;1.98;;
55655;SDS011;41530;52.382;5.270;2023-03-01T09:36:26;4.22;;;1.88;;
55655;SDS011;41530;52.382;5.270;2023-03-01T09:38:52;4.18;;;2.00;;
55655;SDS011;41530;52.382;5.270;2023-03-01T09:46:55;4.57;;;1.92;;
55655;SDS011;41530;52.382;5.270;2023-03-01T09:49:29;5.45;;;1.95;;
55655;SDS011;41530;52.382;5.270;2023-03-01T09:51:59;3.03;;;1.63;;
55655;SDS011;41530;52.382;5.270;2023-03-01T09:54:26;2.05;;;1.48;;
55655;SDS011;41530;52.382;5.270;2023-03-01T09:56:57;3.47;;;1.50;;
55655;SDS011;41530;52.382;5.270;2023-03-01T09:59:37;2.30;;;1.35;;
55655;SDS011;41530;52.382;5.270;2023-03-01T10:05:13;2.93;;;1.23;;
55655;SDS011;41530;52.382;5.270;2023-03-01T10:10:33;4.63;;;1.07;;
55655;SDS011;41530;52.382;5.270;2023-03-01T10:19:04;2.25;;;1.10;;
55655;SDS011;41530;52.382;5.270;2023-03-01T10:21:36;5.18;;;1.20;;
55655;SDS011;41530;52.382;5.270;2023-03-01T10:24:13;1.40;;;1.15;;
55655;SDS011;41530;52.382;5.270;2023-03-01T10:29:15;3.28;;;1.40;;
55655;SDS011;41530;52.382;5.270;2023-03-01T10:31:46;3.33;;;1.10;;
55655;SDS011;41530;52.382;5.270;2023-03-01T10:34:18;1.15;;;1.00;;
55655;SDS011;41530;52.382;5.270;2023-03-01T10:36:48;1.30;;;0.80;;
55655;SDS011;41530;52.382;5.270;2023-03-01T10:39:17;2.17;;;1.30;;
55655;SDS011;41530;52.382;5.270;2023-03-01T10:47:15;1.50;;;1.00;;
55655;SDS011;41530;52.382;5.270;2023-03-01T10:49:57;1.73;;;1.30;;
55655;SDS011;41530;52.382;5.270;2023-03-01T10:52:30;2.47;;;0.90;;
55655;SDS011;41530;52.382;5.270;2023-03-01T10:55:03;1.20;;;0.77;;
55655;SDS011;41530;52.382;5.270;2023-03-01T10:57:50;1.25;;;0.80;;
55655;SDS011;41530;52.382;5.270;2023-03-01T11:03:21;4.75;;;1.30;;
55655;SDS011;41530;52.382;5.270;2023-03-01T11:11:05;1.73;;;0.70;;
55655;SDS011;41530;52.382;5.270;2023-03-01T11:13:58;3.30;;;0.90;;
55655;SDS011;41530;52.382;5.270;2023-03-01T11:16:27;0.77;;;0.70;;
55655;SDS011;41530;52.382;5.270;2023-03-01T11:18:58;1.42;;;0.93;;
55655;SDS011;41530;52.382;5.270;2023-03-01T11:21:26;1.00;;;0.90;;
55655;SDS011;41530;52.382;5.270;2023-03-01T11:23:58;1.77;;;0.70;;
55655;SDS011;41530;52.382;5.270;2023-03-01T11:26:27;1.80;;;0.98;;
55655;SDS011;41530;52.382;5.270;2023-03-01T11:28:58;1.48;;;0.80;;
55655;SDS011;41530;52.382;5.270;2023-03-01T11:31:30;1.30;;;0.85;;
55655;SDS011;41530;52.382;5.270;2023-03-01T11:36:30;0.98;;;0.73;;
55655;SDS011;41530;52.382;5.270;2023-03-01T11:39:37;3.40;;;1.00;;
55655;SDS011;41530;52.382;5.270;2023-03-01T11:45:11;4.32;;;0.98;;
55655;SDS011;41530;52.382;5.270;2023-03-01T11:47:43;1.48;;;0.73;;
55655;SDS011;41530;52.382;5.270;2023-03-01T11:50:48;1.25;;;0.85;;
55655;SDS011;41530;52.382;5.270;2023-03-01T11:56:38;1.05;;;0.95;;
55655;SDS011;41530;52.382;5.270;2023-03-01T11:59:19;1.55;;;1.05;;
55655;SDS011;41530;52.382;5.270;2023-03-01T12:12:44;2.45;;;0.82;;
55655;SDS011;41530;52.382;5.270;2023-03-01T12:26:33;1.13;;;0.70;;
55655;SDS011;41530;52.382;5.270;2023-03-01T12:29:25;1.45;;;0.75;;
55655;SDS011;41530;52.382;5.270;2023-03-01T12:34:28;1.48;;;0.70;;
55655;SDS011;41530;52.382;5.270;2023-03-01T12:37:21;0.77;;;0.70;;
55655;SDS011;41530;52.382;5.270;2023-03-01T12:50:43;1.77;;;0.70;;
55655;SDS011;41530;52.382;5.270;2023-03-01T12:55:46;4.15;;;0.70;;
55655;SDS011;41530;52.382;5.270;2023-03-01T12:58:24;0.98;;;0.70;;
55655;SDS011;41530;52.382;5.270;2023-03-01T13:01:08;1.23;;;0.60;;
55655;SDS011;41530;52.382;5.270;2023-03-01T13:04:21;1.02;;;0.63;;
55655;SDS011;41530;52.382;5.270;2023-03-01T13:06:47;1.20;;;0.90;;
55655;SDS011;41530;52.382;5.270;2023-03-01T13:09:22;3.70;;;0.80;;
55655;SDS011;41530;52.382;5.270;2023-03-01T13:11:50;1.15;;;0.77;;
55655;SDS011;41530;52.382;5.270;2023-03-01T13:16:46;1.15;;;0.60;;
55655;SDS011;41530;52.382;5.270;2023-03-01T13:19:25;1.58;;;0.60;;
55655;SDS011;41530;52.382;5.270;2023-03-01T13:21:55;1.08;;;0.60;;
55655;SDS011;41530;52.382;5.270;2023-03-01T13:24:33;0.70;;;0.60;;
55655;SDS011;41530;52.382;5.270;2023-03-01T13:32:22;1.05;;;0.70;;
55655;SDS011;41530;52.382;5.270;2023-03-01T13:37:40;1.77;;;0.60;;
55655;SDS011;41530;52.382;5.270;2023-03-01T13:40:56;2.97;;;0.63;;
55655;SDS011;41530;52.382;5.270;2023-03-01T13:42:54;0.73;;;0.65;;
55655;SDS011;41530;52.382;5.270;2023-03-01T13:45:40;0.73;;;0.47;;
55655;SDS011;41530;52.382;5.270;2023-03-01T13:48:11;1.58;;;0.50;;
55655;SDS011;41530;52.382;5.270;2023-03-01T13:50:46;0.82;;;0.80;;
55655;SDS011;41530;52.382;5.270;2023-03-01T13:53:18;0.50;;;0.50;;
55655;SDS011;41530;52.382;5.270;2023-03-01T13:55:47;2.03;;;0.57;;
55655;SDS011;41530;52.382;5.270;2023-03-01T13:58:29;1.60;;;0.60;;
55655;SDS011;41530;52.382;5.270;2023-03-01T14:00:59;2.30;;;0.63;;
55655;SDS011;41530;52.382;5.270;2023-03-01T14:03:27;0.50;;;0.40;;
55655;SDS011;41530;52.382;5.270;2023-03-01T14:08:39;1.25;;;0.65;;
55655;SDS011;41530;52.382;5.270;2023-03-01T14:19:41;0.65;;;0.50;;
55655;SDS011;41530;52.382;5.270;2023-03-01T14:24:59;1.75;;;0.70;;
55655;SDS011;41530;52.382;5.270;2023-03-01T14:27:33;0.82;;;0.50;;
55655;SDS011;41530;52.382;5.270;2023-03-01T14:30:18;1.27;;;0.68;;
55655;SDS011;41530;52.382;5.270;2023-03-01T14:35:23;3.10;;;0.80;;
55655;SDS011;41530;52.382;5.270;2023-03-01T14:38:01;1.05;;;0.60;;
55655;SDS011;41530;52.382;5.270;2023-03-01T14:40:37;2.13;;;0.70;;
55655;SDS011;41530;52.382;5.270;2023-03-01T14:43:11;5.70;;;0.70;;
55655;SDS011;41530;52.382;5.270;2023-03-01T14:45:48;1.17;;;0.70;;
55655;SDS011;41530;52.382;5.270;2023-03-01T14:48:16;2.65;;;0.50;;
55655;SDS011;41530;52.382;5.270;2023-03-01T14:50:44;4.35;;;0.80;;
55655;SDS011;41530;52.382;5.270;2023-03-01T14:53:21;0.98;;;0.50;;
55655;SDS011;41530;52.382;5.270;2023-03-01T14:55:55;1.02;;;0.50;;
55655;SDS011;41530;52.382;5.270;2023-03-01T14:58:26;2.63;;;0.60;;
55655;SDS011;41530;52.382;5.270;2023-03-01T15:00:57;3.13;;;0.80;;
55655;SDS011;41530;52.382;5.270;2023-03-01T15:06:06;1.58;;;0.60;;
55655;SDS011;41530;52.382;5.270;2023-03-01T15:08:35;3.03;;;0.63;;
55655;SDS011;41530;52.382;5.270;2023-03-01T15:13:32;1.45;;;0.65;;
55655;SDS011;41530;52.382;5.270;2023-03-01T15:16:08;2.17;;;0.50;;
55655;SDS011;41530;52.382;5.270;2023-03-01T15:18:43;2.22;;;0.55;;
55655;SDS011;41530;52.382;5.270;2023-03-01T15:21:17;3.28;;;0.60;;
55655;SDS011;41530;52.382;5.270;2023-03-01T15:23:54;2.28;;;0.52;;
55655;SDS011;41530;52.382;5.270;2023-03-01T15:26:34;1.23;;;0.70;;
55655;SDS011;41530;52.382;5.270;2023-03-01T15:29:10;2.70;;;1.02;;
55655;SDS011;41530;52.382;5.270;2023-03-01T15:31:43;3.05;;;0.90;;
55655;SDS011;41530;52.382;5.270;2023-03-01T15:36:50;1.77;;;0.60;;
55655;SDS011;41530;52.382;5.270;2023-03-01T15:41:50;2.13;;;0.60;;
55655;SDS011;41530;52.382;5.270;2023-03-01T15:44:17;2.28;;;0.77;;
55655;SDS011;41530;52.382;5.270;2023-03-01T15:47:00;2.17;;;0.70;;
55655;SDS011;41530;52.382;5.270;2023-03-01T15:51:57;4.20;;;0.90;;
55655;SDS011;41530;52.382;5.270;2023-03-01T15:54:24;1.40;;;0.60;;
55655;SDS011;41530;52.382;5.270;2023-03-01T15:56:52;1.83;;;0.90;;
55655;SDS011;41530;52.382;5.270;2023-03-01T15:59:19;2.33;;;0.60;;
55655;SDS011;41530;52.382;5.270;2023-03-01T16:01:47;0.90;;;0.60;;
55655;SDS011;41530;52.382;5.270;2023-03-01T16:04:15;4.63;;;0.90;;
55655;SDS011;41530;52.382;5.270;2023-03-01T16:06:47;1.45;;;0.68;;
55655;SDS011;41530;52.382;5.270;2023-03-01T16:09:22;3.58;;;0.65;;
55655;SDS011;41530;52.382;5.270;2023-03-01T16:11:50;1.52;;;0.75;;
55655;SDS011;41530;52.382;5.270;2023-03-01T16:14:17;1.30;;;0.60;;
55655;SDS011;41530;52.382;5.270;2023-03-01T16:16:45;2.00;;;0.70;;
55655;SDS011;41530;52.382;5.270;2023-03-01T16:19:12;2.03;;;1.00;;
55655;SDS011;41530;52.382;5.270;2023-03-01T16:21:38;3.78;;;0.70;;
55655;SDS011;41530;52.382;5.270;2023-03-01T16:24:05;4.68;;;1.02;;
55655;SDS011;41530;52.382;5.270;2023-03-01T16:26:32;2.47;;;0.60;;
55655;SDS011;41530;52.382;5.270;2023-03-01T16:28:59;2.85;;;0.82;;
55655;SDS011;41530;52.382;5.270;2023-03-01T16:31:25;2.35;;;0.80;;
55655;SDS011;41530;52.382;5.270;2023-03-01T16:33:54;1.95;;;0.98;;
55655;SDS011;41530;52.382;5.270;2023-03-01T16:36:22;2.25;;;0.90;;
55655;SDS011;41530;52.382;5.270;2023-03-01T16:38:50;1.83;;;0.70;;
55655;SDS011;41530;52.382;5.270;2023-03-01T16:41:19;3.83;;;0.90;;
55655;SDS011;41530;52.382;5.270;2023-03-01T16:43:47;1.50;;;0.80;;
55655;SDS011;41530;52.382;5.270;2023-03-01T16:46:16;1.45;;;0.60;;
55655;SDS011;41530;52.382;5.270;2023-03-01T16:48:45;1.95;;;0.98;;
55655;SDS011;41530;52.382;5.270;2023-03-01T16:51:13;2.22;;;0.88;;
55655;SDS011;41530;52.382;5.270;2023-03-01T16:53:39;2.05;;;0.70;;
55655;SDS011;41530;52.382;5.270;2023-03-01T16:56:08;1.13;;;0.80;;
55655;SDS011;41530;52.382;5.270;2023-03-01T16:58:36;4.90;;;0.68;;
55655;SDS011;41530;52.382;5.270;2023-03-01T17:01:09;1.70;;;0.80;;
55655;SDS011;41530;52.382;5.270;2023-03-01T17:03:38;1.05;;;0.70;;
55655;SDS011;41530;52.382;5.270;2023-03-01T17:06:06;0.63;;;0.63;;
55655;SDS011;41530;52.382;5.270;2023-03-01T17:08:35;0.70;;;0.70;;
55655;SDS011;41530;52.382;5.270;2023-03-01T17:11:06;2.25;;;1.08;;
55655;SDS011;41530;52.382;5.270;2023-03-01T17:13:35;1.20;;;0.80;;
55655;SDS011;41530;52.382;5.270;2023-03-01T17:16:07;1.48;;;1.00;;
55655;SDS011;41530;52.382;5.270;2023-03-01T17:18:36;1.58;;;0.90;;
55655;SDS011;41530;52.382;5.270;2023-03-01T17:21:04;1.70;;;0.77;;
55655;SDS011;41530;52.382;5.270;2023-03-01T17:23:32;1.90;;;0.77;;
55655;SDS011;41530;52.382;5.270;2023-03-01T17:25:59;1.20;;;0.95;;
55655;SDS011;41530;52.382;5.270;2023-03-01T17:28:27;2.03;;;1.00;;
55655;SDS011;41530;52.382;5.270;2023-03-01T17:30:55;3.72;;;0.77;;
55655;SDS011;41530;52.382;5.270;2023-03-01T17:33:21;1.23;;;0.60;;
55655;SDS011;41530;52.382;5.270;2023-03-01T17:35:48;1.73;;;0.85;;
55655;SDS011;41530;52.382;5.270;2023-03-01T17:38:16;3.08;;;0.80;;
55655;SDS011;41530;52.382;5.270;2023-03-01T17:40:43;1.90;;;0.68;;